Time;durP1;ratioP1;P1;durP2;ratioP2;P2;SDS_P1;SDS_P2;PMS_P1;PMS_P2;Temp;Humidity;BMP_temperature;BMP_pressure;BME280_temperature;BME280_humidity;BME280_pressure;Samples;Min_cycle;Max_cycle;Signal;HPM_P1;HPM_P2
2021/09/26 00:01:03;;;;;;;9.32;4.53;;;;;;;17.32;57.53;100480.44;5027263;28;20033;-70
2021/09/26 00:03:29;;;;;;;12.75;4.95;;;;;;;17.32;57.09;100476.94;5029372;28;20024;-69
2021/09/26 00:05:55;;;;;;;13.90;5.18;;;;;;;17.51;56.99;100485.19;5028433;28;20043;-69
2021/09/26 00:08:20;;;;;;;18.67;4.72;;;;;;;17.67;57.13;100483.34;5032890;28;20053;-69
2021/09/26 00:10:46;;;;;;;10.77;4.88;;;;;;;17.81;56.71;100483.31;5029390;28;20032;-69
2021/09/26 00:13:11;;;;;;;14.40;5.40;;;;;;;17.94;56.54;100485.28;5032514;28;20034;-69
2021/09/26 00:15:37;;;;;;;19.35;5.47;;;;;;;18.06;56.10;100486.44;5040482;28;20097;-69
2021/09/26 00:18:02;;;;;;;15.80;5.18;;;;;;;17.91;56.42;100492.88;5040265;28;20044;-69
2021/09/26 00:20:28;;;;;;;14.35;5.95;;;;;;;18.01;56.62;100493.38;5018070;28;20048;-69
2021/09/26 00:22:54;;;;;;;19.10;6.95;;;;;;;18.18;56.36;100492.94;5026158;28;20215;-69
2021/09/26 00:25:20;;;;;;;14.05;6.95;;;;;;;18.35;55.92;100484.59;5023096;28;20207;-69
2021/09/26 00:27:46;;;;;;;11.55;5.68;;;;;;;18.43;54.69;100495.19;5027035;28;20064;-69
2021/09/26 00:30:14;;;;;;;13.50;5.57;;;;;;;18.31;55.43;100500.25;5033942;28;20033;-69
2021/09/26 00:32:40;;;;;;;14.57;5.55;;;;;;;18.14;55.50;100491.66;5033555;28;20037;-69
2021/09/26 00:35:06;;;;;;;8.77;5.07;;;;;;;18.07;55.80;100480.06;5038764;28;20119;-69
2021/09/26 00:37:31;;;;;;;12.02;4.78;;;;;;;18.05;55.79;100482.09;5041187;28;20042;-69
2021/09/26 00:39:57;;;;;;;13.02;5.65;;;;;;;17.94;55.67;100481.78;5036328;28;20349;-69
2021/09/26 00:42:22;;;;;;;24.33;6.60;;;;;;;17.70;55.83;100474.94;5033133;28;20041;-69
2021/09/26 00:44:48;;;;;;;22.08;6.00;;;;;;;17.67;56.35;100477.97;5036155;28;20028;-69
2021/09/26 00:47:14;;;;;;;16.88;6.40;;;;;;;17.64;56.42;100478.34;5036495;28;20223;-69
2021/09/26 00:49:39;;;;;;;14.20;5.53;;;;;;;17.64;56.99;100483.69;5043207;28;20034;-69
2021/09/26 00:52:05;;;;;;;13.02;5.35;;;;;;;17.64;57.21;100489.03;5043747;28;20052;-69
2021/09/26 00:54:30;;;;;;;18.02;6.38;;;;;;;17.58;58.37;100485.28;5036641;28;20056;-69
2021/09/26 00:56:56;;;;;;;18.13;6.80;;;;;;;17.72;58.01;100497.84;5034205;28;20356;-69
2021/09/26 00:59:22;;;;;;;18.90;6.15;;;;;;;17.81;58.34;100493.19;5030087;28;20032;-69
2021/09/26 01:01:48;;;;;;;13.93;5.60;;;;;;;17.82;58.13;100492.19;5023508;28;20037;-69
2021/09/26 01:04:15;;;;;;;13.23;5.50;;;;;;;17.97;57.91;100500.16;5024631;28;20096;-69
2021/09/26 01:06:51;;;;;;;10.27;5.63;;;;;;;17.83;58.45;100501.88;5032155;28;20351;-69
2021/09/26 01:09:34;;;;;;;8.80;5.40;;;;;;;17.82;58.31;100498.38;5036140;28;20037;-69
2021/09/26 01:12:18;;;;;;;11.95;5.60;;;;;;;18.00;57.70;100494.41;5029595;28;20030;-69
2021/09/26 01:14:49;;;;;;;12.13;5.50;;;;;;;18.07;56.38;100495.31;5022972;28;20320;-69
2021/09/26 01:17:18;;;;;;;10.52;5.30;;;;;;;18.04;56.12;100490.31;5024446;28;20044;-69
2021/09/26 01:20:20;;;;;;;11.20;5.80;;;;;;;17.93;56.19;100493.53;5029068;28;20098;-69
2021/09/26 01:23:01;;;;;;;10.20;5.32;;;;;;;17.70;56.07;100497.22;5037329;28;20067;-69
2021/09/26 01:26:02;;;;;;;13.50;5.80;;;;;;;17.55;57.14;100499.03;5029002;28;20087;-69
2021/09/26 01:28:58;;;;;;;13.68;6.35;;;;;;;17.35;59.49;100506.00;5028474;28;20036;-69
2021/09/26 01:31:29;;;;;;;10.32;5.25;;;;;;;17.15;60.20;100498.56;5029832;28;20033;-69
2021/09/26 01:34:03;;;;;;;12.55;6.45;;;;;;;17.05;60.00;100503.38;5034848;28;20051;-69
2021/09/26 01:36:42;;;;;;;18.45;7.28;;;;;;;16.84;61.25;100504.13;5032210;28;20219;-69
2021/09/26 01:39:13;;;;;;;20.10;6.47;;;;;;;16.69;61.67;100502.44;5035835;28;20048;-69
2021/09/26 01:42:10;;;;;;;14.15;7.05;;;;;;;16.32;63.01;100505.91;5027034;28;20097;-69
2021/09/26 01:44:38;;;;;;;12.82;7.47;;;;;;;16.11;63.91;100494.06;5028872;28;20109;-69
2021/09/26 01:47:07;;;;;;;12.65;6.88;;;;;;;16.27;63.44;100495.78;5029924;28;20032;-69
2021/09/26 01:49:39;;;;;;;14.00;7.57;;;;;;;16.44;62.93;100493.78;5029528;28;20034;-69
2021/09/26 01:52:10;;;;;;;16.20;7.30;;;;;;;16.59;62.35;100497.31;5031507;28;20247;-69
2021/09/26 01:54:36;;;;;;;16.05;7.45;;;;;;;16.86;61.51;100479.84;5029738;28;20045;-69
2021/09/26 01:57:02;;;;;;;13.93;7.43;;;;;;;17.11;60.75;100488.41;5029454;28;20038;-69
2021/09/26 01:59:29;;;;;;;10.85;7.05;;;;;;;17.15;60.05;100487.84;5037303;28;20088;-69
2021/09/26 02:01:56;;;;;;;14.15;7.35;;;;;;;17.15;59.85;100476.31;5032277;28;20030;-69
2021/09/26 02:04:24;;;;;;;13.88;7.97;;;;;;;17.13;59.38;100478.34;5028673;28;20226;-69
2021/09/26 02:06:51;;;;;;;13.15;6.85;;;;;;;16.96;59.74;100476.91;5032459;28;20025;-69
2021/09/26 02:09:18;;;;;;;13.63;7.25;;;;;;;16.94;60.39;100473.59;5022744;28;20033;-69
2021/09/26 02:11:44;;;;;;;14.60;7.07;;;;;;;16.81;60.34;100483.09;5042034;28;20064;-69
2021/09/26 02:14:12;;;;;;;15.68;7.28;;;;;;;16.86;60.31;100485.22;5032747;28;20041;-69
2021/09/26 02:16:38;;;;;;;14.57;7.20;;;;;;;16.88;60.29;100489.34;5035269;28;20070;-69
2021/09/26 02:19:05;;;;;;;17.90;7.70;;;;;;;16.89;60.20;100484.84;5039678;28;20323;-69
2021/09/26 02:21:31;;;;;;;11.55;6.88;;;;;;;16.88;59.92;100489.34;5042008;28;20036;-69
2021/09/26 02:23:58;;;;;;;11.35;7.00;;;;;;;16.69;60.94;100489.91;5036329;28;20041;-69
2021/09/26 02:26:25;;;;;;;19.38;7.53;;;;;;;16.59;60.58;100484.75;5040164;28;20037;-69
2021/09/26 02:28:51;;;;;;;15.95;6.90;;;;;;;16.58;61.29;100492.97;5024001;28;20289;-69
2021/09/26 02:31:16;;;;;;;10.40;6.50;;;;;;;16.37;63.11;100493.69;5033187;28;20029;-69
2021/09/26 02:33:44;;;;;;;12.88;6.35;;;;;;;16.51;61.09;100495.53;5031578;28;20087;-69
2021/09/26 02:36:12;;;;;;;10.90;6.45;;;;;;;16.67;61.77;100491.09;5035239;28;20071;-69
2021/09/26 02:38:37;;;;;;;9.18;5.82;;;;;;;16.83;60.92;100497.09;5028114;28;20057;-69
2021/09/26 02:41:40;;;;;;;9.82;6.13;;;;;;;16.97;60.41;100497.28;5024219;28;20346;-69
2021/09/26 02:44:23;;;;;;;8.00;5.40;;;;;;;16.51;62.88;100498.22;5027983;28;20046;-69
2021/09/26 02:47:01;;;;;;;9.77;6.18;;;;;;;16.63;62.06;100497.78;5031537;28;20298;-69
2021/09/26 02:49:27;;;;;;;8.90;5.63;;;;;;;16.28;64.29;100500.09;5036317;28;20038;-69
2021/09/26 02:51:53;;;;;;;9.85;6.10;;;;;;;16.37;64.12;100503.53;5028038;28;20014;-69
2021/09/26 02:54:20;;;;;;;9.52;5.80;;;;;;;16.58;63.03;100509.84;5027780;28;20366;-69
2021/09/26 02:56:46;;;;;;;7.75;5.45;;;;;;;16.50;63.35;100504.56;5026733;28;20341;-69
2021/09/26 02:59:13;;;;;;;10.85;5.40;;;;;;;16.48;62.87;100490.56;5032743;28;20049;-69
2021/09/26 03:01:52;;;;;;;11.35;6.65;;;;;;;16.39;62.92;100497.00;5025745;28;20048;-69
2021/09/26 03:04:18;;;;;;;10.80;5.85;;;;;;;16.63;62.37;100503.13;5027073;28;20040;-69
2021/09/26 03:06:44;;;;;;;8.35;6.30;;;;;;;16.72;62.15;100505.59;5028941;28;20021;-69
2021/09/26 03:09:09;;;;;;;13.02;6.50;;;;;;;16.71;61.94;100509.28;5029532;28;20029;-69
2021/09/26 03:11:35;;;;;;;19.45;6.65;;;;;;;16.63;61.68;100495.09;5036672;28;20025;-69
2021/09/26 03:14:00;;;;;;;16.05;6.60;;;;;;;16.98;60.98;100513.16;5032121;28;20033;-69
2021/09/26 03:16:25;;;;;;;15.30;6.30;;;;;;;16.97;60.60;100508.00;5034511;28;20208;-69
2021/09/26 03:18:51;;;;;;;11.00;6.22;;;;;;;16.81;61.00;100507.16;5032428;28;20041;-69
2021/09/26 03:21:16;;;;;;;11.80;5.97;;;;;;;16.70;61.62;100504.09;5025980;28;20049;-69
2021/09/26 03:23:42;;;;;;;10.73;5.85;;;;;;;16.69;61.24;100494.44;5029550;28;20049;-69
2021/09/26 03:26:08;;;;;;;9.65;5.72;;;;;;;16.74;60.97;100500.88;5037273;28;20039;-69
2021/09/26 03:28:33;;;;;;;8.32;5.55;;;;;;;16.63;60.75;100500.44;5031431;28;20037;-69
2021/09/26 03:30:59;;;;;;;10.40;7.70;;;;;;;16.44;61.89;100518.66;5040502;28;20208;-69
2021/09/26 03:33:24;;;;;;;14.45;7.60;;;;;;;16.29;62.16;100515.13;5033617;28;20057;-69
2021/09/26 03:35:50;;;;;;;16.38;6.32;;;;;;;16.44;61.96;100507.16;5035669;28;20361;-69
2021/09/26 03:38:16;;;;;;;9.85;6.35;;;;;;;16.39;62.07;100509.53;5041551;28;20052;-69
2021/09/26 03:40:42;;;;;;;17.83;5.70;;;;;;;16.52;61.73;100509.75;5033927;28;20014;-71
2021/09/26 03:43:07;;;;;;;17.83;5.70;;;;;;;16.45;61.72;100514.97;5033874;28;20040;-69
2021/09/26 03:45:33;;;;;;;9.25;5.72;;;;;;;16.23;62.66;100505.16;5029239;28;20051;-69
2021/09/26 03:47:59;;;;;;;10.80;5.80;;;;;;;16.23;62.77;100515.84;5030971;28;20049;-69
2021/09/26 03:50:25;;;;;;;8.70;4.93;;;;;;;16.28;62.47;100513.47;5034246;28;20327;-69
2021/09/26 03:52:50;;;;;;;9.88;5.63;;;;;;;16.15;62.51;100515.91;5021711;28;20037;-69
2021/09/26 03:55:15;;;;;;;10.88;4.80;;;;;;;16.12;62.42;100501.06;5020684;28;20026;-69
2021/09/26 03:57:42;;;;;;;17.48;6.78;;;;;;;16.05;62.82;100508.16;5021839;28;20131;-69
2021/09/26 04:00:11;;;;;;;10.35;5.78;;;;;;;16.13;62.30;100509.91;5034048;28;20318;-69
2021/09/26 04:02:36;;;;;;;12.48;5.30;;;;;;;16.13;61.88;100496.56;5022652;28;20247;-69
2021/09/26 04:05:02;;;;;;;9.38;4.55;;;;;;;16.06;62.35;100507.13;5031372;28;20033;-69
2021/09/26 04:07:27;;;;;;;8.10;4.95;;;;;;;16.19;61.84;100517.22;5032716;28;20060;-69
2021/09/26 04:09:53;;;;;;;8.50;4.47;;;;;;;16.27;61.47;100512.63;5028389;28;20078;-69
2021/09/26 04:12:18;;;;;;;12.50;6.30;;;;;;;16.12;61.88;100501.06;5034977;28;20033;-69
2021/09/26 04:14:43;;;;;;;17.48;11.13;;;;;;;16.12;62.08;100522.44;5037169;28;20029;-69
2021/09/26 04:17:09;;;;;;;16.48;6.93;;;;;;;16.15;61.93;100521.25;5035836;28;20021;-69
2021/09/26 04:19:34;;;;;;;11.98;5.70;;;;;;;16.21;60.92;100512.53;5025891;28;20022;-69
2021/09/26 04:22:00;;;;;;;20.30;11.88;;;;;;;15.91;61.86;100511.59;5029407;28;20040;-69
2021/09/26 04:24:26;;;;;;;11.48;7.70;;;;;;;16.10;61.52;100520.97;5024094;28;20270;-69
2021/09/26 04:26:51;;;;;;;7.28;4.70;;;;;;;16.34;60.60;100520.75;5029536;28;20014;-69
2021/09/26 04:29:17;;;;;;;14.50;4.90;;;;;;;16.19;61.03;100519.88;5033679;28;20053;-69
2021/09/26 04:31:42;;;;;;;25.85;12.73;;;;;;;16.19;61.13;100520.72;5035343;28;20198;-69
2021/09/26 04:34:08;;;;;;;121.45;49.63;;;;;;;16.30;60.63;100524.81;5029591;28;20030;-69
2021/09/26 04:36:34;;;;;;;154.95;66.57;;;;;;;16.31;59.46;100523.78;5036712;28;20040;-69
2021/09/26 04:38:59;;;;;;;150.50;67.80;;;;;;;16.01;60.86;100522.88;5040442;28;20021;-69
2021/09/26 04:41:25;;;;;;;127.43;55.67;;;;;;;15.86;61.79;100527.31;5016620;28;20266;-69
2021/09/26 04:43:50;;;;;;;102.55;45.50;;;;;;;15.85;62.37;100536.34;5030010;28;20045;-69
2021/09/26 04:46:15;;;;;;;76.05;32.33;;;;;;;15.79;62.55;100534.38;5026116;28;20223;-69
2021/09/26 04:48:41;;;;;;;99.47;43.15;;;;;;;15.91;62.65;100536.47;5040971;28;20025;-69
2021/09/26 04:51:06;;;;;;;88.28;37.40;;;;;;;16.04;62.51;100541.22;5032619;28;20111;-69
2021/09/26 04:53:32;;;;;;;55.13;21.25;;;;;;;16.11;62.12;100541.34;5034031;28;20326;-69
2021/09/26 04:55:58;;;;;;;40.90;16.45;;;;;;;16.21;62.32;100544.59;5034736;28;20044;-69
2021/09/26 04:58:23;;;;;;;26.95;10.88;;;;;;;16.35;61.76;100551.81;5029538;28;20243;-69
2021/09/26 05:00:50;;;;;;;14.32;6.85;;;;;;;16.38;61.37;100553.31;5029811;28;20026;-69
2021/09/26 05:03:16;;;;;;;8.50;6.20;;;;;;;16.56;61.15;100553.81;5033859;28;20044;-69
2021/09/26 05:05:41;;;;;;;14.15;5.80;;;;;;;16.67;60.95;100552.59;5025425;28;20089;-69
2021/09/26 05:08:07;;;;;;;14.02;5.72;;;;;;;16.83;59.97;100541.75;5011263;28;20030;-69
2021/09/26 05:10:33;;;;;;;11.05;5.88;;;;;;;16.92;59.71;100548.66;5023320;28;20320;-69
2021/09/26 05:12:59;;;;;;;11.32;5.57;;;;;;;16.91;59.73;100542.50;5032399;28;20025;-69
2021/09/26 05:15:25;;;;;;;38.22;20.73;;;;;;;17.05;59.71;100550.69;5040036;28;20329;-69
2021/09/26 05:17:50;;;;;;;39.83;21.38;;;;;;;17.12;59.58;100555.13;5011684;28;20029;-69
2021/09/26 05:20:16;;;;;;;43.05;22.05;;;;;;;17.23;59.54;100553.84;5039182;28;20032;-69
2021/09/26 05:22:41;;;;;;;25.42;10.38;;;;;;;17.28;59.44;100558.63;5043673;28;20036;-69
2021/09/26 05:25:07;;;;;;;31.98;19.20;;;;;;;17.42;58.94;100553.25;5044178;28;20097;-69
2021/09/26 05:27:33;;;;;;;23.92;16.10;;;;;;;17.56;58.75;100556.94;5044149;28;20041;-69
2021/09/26 05:29:58;;;;;;;17.08;10.10;;;;;;;17.61;58.90;100556.38;5044002;28;20260;-69
2021/09/26 05:32:24;;;;;;;11.02;6.78;;;;;;;17.55;58.66;100563.31;5043950;28;20033;-69
2021/09/26 05:34:50;;;;;;;12.25;6.35;;;;;;;17.61;58.66;100559.88;5043665;28;20041;-69
2021/09/26 05:37:15;;;;;;;18.27;6.55;;;;;;;18.12;57.29;100559.88;5044163;28;20037;-69
2021/09/26 05:39:40;;;;;;;14.18;5.97;;;;;;;18.56;56.43;100556.97;5043486;28;20100;-69
2021/09/26 05:42:07;;;;;;;15.48;5.90;;;;;;;18.94;55.35;100548.63;5043988;28;20026;-69
2021/09/26 05:44:35;;;;;;;14.18;6.75;;;;;;;19.20;53.97;100551.47;5043554;28;20048;-69
2021/09/26 05:47:01;;;;;;;11.40;5.85;;;;;;;19.40;53.60;100549.72;5043911;28;20294;-69
2021/09/26 05:49:27;;;;;;;15.52;7.70;;;;;;;19.45;53.50;100546.41;5043566;28;20029;-69
2021/09/26 05:51:52;;;;;;;24.48;7.90;;;;;;;19.65;52.94;100555.41;5043602;28;20056;-69
2021/09/26 05:54:19;;;;;;;29.02;10.70;;;;;;;19.78;52.71;100565.41;5043515;28;20073;-70
2021/09/26 05:56:45;;;;;;;25.08;11.32;;;;;;;20.01;52.36;100557.81;5043447;28;20318;-70
2021/09/26 05:59:11;;;;;;;21.15;9.27;;;;;;;20.25;51.75;100561.78;5043988;28;20049;-69
2021/09/26 06:01:36;;;;;;;23.88;9.95;;;;;;;20.66;51.18;100561.63;5043111;28;20026;-70
2021/09/26 06:04:02;;;;;;;13.27;7.28;;;;;;;21.03;50.09;100557.47;5043290;28;20305;-69
2021/09/26 06:06:27;;;;;;;32.67;9.80;;;;;;;21.20;49.65;100559.69;5037481;28;20219;-70
2021/09/26 06:08:53;;;;;;;16.38;6.68;;;;;;;21.32;49.89;100563.41;5035701;28;20033;-69
2021/09/26 06:11:18;;;;;;;13.93;6.53;;;;;;;21.69;49.06;100551.03;5030236;28;20092;-69
2021/09/26 06:13:43;;;;;;;11.27;6.30;;;;;;;22.15;47.88;100560.78;5031812;28;20041;-69
2021/09/26 06:16:09;;;;;;;12.23;6.43;;;;;;;22.26;47.55;100570.88;5027539;28;20056;-69
2021/09/26 06:18:34;;;;;;;19.15;7.45;;;;;;;22.50;46.68;100561.97;5024172;28;20037;-69
2021/09/26 06:21:00;;;;;;;16.83;6.95;;;;;;;22.60;46.49;100556.91;5031879;28;20376;-69
2021/09/26 06:23:28;;;;;;;12.88;6.90;;;;;;;22.77;46.14;100567.13;5206976;22;20025;-68
2021/09/26 06:25:53;;;;;;;15.18;6.38;;;;;;;22.88;45.79;100567.25;5040693;28;20341;-66
2021/09/26 06:28:18;;;;;;;14.80;6.53;;;;;;;23.03;45.49;100555.31;5042916;28;20030;-67
2021/09/26 06:30:44;;;;;;;28.75;9.85;;;;;;;23.30;44.52;100555.84;5026166;28;20049;-67
2021/09/26 06:33:10;;;;;;;25.88;6.93;;;;;;;23.35;44.49;100561.41;5027433;28;20387;-67
2021/09/26 06:35:35;;;;;;;17.20;7.35;;;;;;;23.21;44.74;100563.44;5025186;28;20029;-67
2021/09/26 06:38:01;;;;;;;12.75;6.55;;;;;;;23.29;44.80;100560.41;5037825;28;20036;-67
2021/09/26 06:40:26;;;;;;;17.00;7.65;;;;;;;23.61;43.96;100558.41;5041432;28;20045;-67
2021/09/26 06:42:52;;;;;;;10.45;5.88;;;;;;;23.79;43.67;100552.94;5033287;28;20109;-67
2021/09/26 06:45:18;;;;;;;14.18;6.22;;;;;;;23.95;43.24;100556.09;5025341;28;20505;-67
2021/09/26 06:47:43;;;;;;;10.82;6.88;;;;;;;24.14;42.60;100552.28;5031289;28;20250;-67
2021/09/26 06:50:10;;;;;;;11.63;5.97;;;;;;;24.04;42.09;100554.72;5029689;28;20045;-67
2021/09/26 06:52:36;;;;;;;10.63;6.70;;;;;;;24.33;41.45;100556.59;5034421;28;20030;-67
2021/09/26 06:55:03;;;;;;;12.75;6.63;;;;;;;24.16;41.53;100556.41;5033565;28;20041;-67
2021/09/26 06:57:28;;;;;;;13.43;7.03;;;;;;;24.75;39.98;100551.91;5041983;28;20100;-67
2021/09/26 06:59:54;;;;;;;11.85;6.47;;;;;;;24.93;40.08;100560.97;5039721;28;20269;-67
2021/09/26 07:02:23;;;;;;;17.80;7.00;;;;;;;25.13;38.82;100551.47;5027942;28;20200;-67
2021/09/26 07:04:49;;;;;;;27.27;7.78;;;;;;;25.22;38.91;100551.13;5024291;28;20033;-67
2021/09/26 07:07:15;;;;;;;9.23;6.38;;;;;;;25.34;38.75;100551.91;5037011;28;20273;-67
2021/09/26 07:09:42;;;;;;;12.20;6.22;;;;;;;25.57;37.95;100548.31;5030536;28;20140;-67
2021/09/26 07:12:09;;;;;;;14.82;7.03;;;;;;;25.73;37.66;100551.09;5033122;28;20075;-67
2021/09/26 07:14:34;;;;;;;10.88;7.00;;;;;;;25.48;38.47;100552.47;5023641;28;20071;-67
2021/09/26 07:17:00;;;;;;;10.02;7.53;;;;;;;25.59;38.01;100557.84;5031367;28;20049;-67
2021/09/26 07:19:25;;;;;;;14.35;7.55;;;;;;;25.80;37.67;100564.53;5031173;28;20504;-67
2021/09/26 07:21:51;;;;;;;12.25;8.60;;;;;;;25.68;37.66;100553.72;5031475;28;20034;-67
2021/09/26 07:24:16;;;;;;;16.60;7.20;;;;;;;25.72;37.56;100552.16;5026324;28;20050;-67
2021/09/26 07:26:42;;;;;;;12.20;6.72;;;;;;;25.70;38.45;100548.06;5030556;28;20257;-67
2021/09/26 07:29:07;;;;;;;15.07;7.35;;;;;;;25.73;38.15;100545.69;5033681;28;20632;-67
2021/09/26 07:31:33;;;;;;;14.77;8.10;;;;;;;25.58;38.45;100537.22;5030538;28;20038;-65
2021/09/26 07:33:58;;;;;;;10.95;7.50;;;;;;;25.75;37.90;100546.25;5027676;28;20761;-65
2021/09/26 07:36:24;;;;;;;11.30;7.00;;;;;;;25.83;37.47;100544.22;5027367;28;20034;-65
2021/09/26 07:38:49;;;;;;;10.10;6.88;;;;;;;26.03;37.29;100545.44;5013099;28;20029;-64
2021/09/26 07:41:14;;;;;;;12.45;6.72;;;;;;;26.09;37.26;100541.75;5023620;28;20037;-65
2021/09/26 07:43:40;;;;;;;19.67;8.43;;;;;;;26.21;36.67;100554.44;5026077;28;20074;-65
2021/09/26 07:46:05;;;;;;;13.88;6.53;;;;;;;26.08;37.46;100544.72;5033251;28;20323;-65
2021/09/26 07:48:31;;;;;;;20.10;6.65;;;;;;;25.93;37.04;100542.53;5035122;28;20034;-65
2021/09/26 07:50:56;;;;;;;12.93;7.15;;;;;;;25.79;37.84;100549.31;5009260;28;20036;-65
2021/09/26 07:53:22;;;;;;;14.27;7.18;;;;;;;26.21;36.70;100547.13;5022194;28;20052;-65
2021/09/26 07:55:52;;;;;;;12.82;6.45;;;;;;;26.10;37.47;100548.00;5025402;28;20033;-65
2021/09/26 07:58:18;;;;;;;11.88;7.47;;;;;;;26.27;36.38;100529.03;5020549;28;20034;-64
2021/09/26 08:00:44;;;;;;;14.15;6.75;;;;;;;26.05;37.06;100542.50;5026123;28;20083;-64
2021/09/26 08:03:09;;;;;;;14.05;6.93;;;;;;;26.14;36.84;100538.31;5026291;28;20033;-64
2021/09/26 08:05:35;;;;;;;17.95;7.30;;;;;;;26.57;35.91;100526.00;5028583;28;20030;-65
2021/09/26 08:08:01;;;;;;;11.23;7.07;;;;;;;26.28;35.98;100533.38;5035541;28;20029;-65
2021/09/26 08:10:27;;;;;;;11.30;7.28;;;;;;;26.43;35.81;100530.13;5036484;28;20041;-64
2021/09/26 08:12:52;;;;;;;11.13;6.80;;;;;;;26.41;35.33;100541.22;5017098;28;20037;-65
2021/09/26 08:15:18;;;;;;;13.50;7.10;;;;;;;26.26;35.83;100528.19;5017738;28;20210;-65
2021/09/26 08:17:43;;;;;;;13.75;7.22;;;;;;;26.13;36.76;100530.41;5036284;28;20063;-65
2021/09/26 08:20:09;;;;;;;12.27;6.50;;;;;;;25.98;37.03;100520.91;5032915;28;20037;-64
2021/09/26 08:22:35;;;;;;;10.63;6.32;;;;;;;25.81;37.49;100525.47;5035559;28;20329;-66
2021/09/26 08:25:03;;;;;;;13.80;7.45;;;;;;;25.77;37.26;100521.59;5035348;28;20838;-66
2021/09/26 08:27:30;;;;;;;12.82;7.28;;;;;;;25.49;37.73;100519.69;5033886;28;20155;-66
2021/09/26 08:29:55;;;;;;;19.23;6.22;;;;;;;25.87;37.94;100508.22;5028680;28;20051;-67
2021/09/26 08:32:21;;;;;;;12.02;6.68;;;;;;;26.28;37.26;100508.94;5025906;28;20090;-66
2021/09/26 08:34:47;;;;;;;16.88;6.75;;;;;;;26.57;37.03;100507.00;5032566;28;20033;-65
2021/09/26 08:37:12;;;;;;;12.73;7.35;;;;;;;26.46;36.34;100510.63;5037120;28;20266;-65
2021/09/26 08:39:38;;;;;;;15.30;6.85;;;;;;;26.62;36.66;100504.34;5027227;28;20156;-65
2021/09/26 08:42:04;;;;;;;15.48;6.68;;;;;;;26.64;36.81;100508.47;5029283;28;20041;-65
2021/09/26 08:44:29;;;;;;;11.43;7.47;;;;;;;26.60;36.28;100509.22;5043945;28;20036;-64
2021/09/26 08:46:55;;;;;;;12.45;7.70;;;;;;;26.27;36.44;100499.97;5041273;28;20117;-67
2021/09/26 08:49:21;;;;;;;9.77;7.07;;;;;;;25.93;38.22;100492.84;5041386;28;20345;-66
2021/09/26 08:51:49;;;;;;;12.02;7.07;;;;;;;25.89;37.82;100492.53;5040791;28;20038;-66
2021/09/26 08:54:15;;;;;;;9.77;6.10;;;;;;;26.24;37.24;100489.63;5040551;28;20108;-65
2021/09/26 08:56:42;;;;;;;10.82;6.63;;;;;;;26.37;38.26;100491.22;5041452;28;20093;-65
2021/09/26 08:59:11;;;;;;;12.35;6.88;;;;;;;26.57;37.09;100477.94;5042324;28;20107;-65
2021/09/26 09:01:37;;;;;;;9.45;6.47;;;;;;;26.73;36.91;100470.81;5044767;28;20568;-65
2021/09/26 09:04:04;;;;;;;9.55;6.78;;;;;;;26.69;36.47;100481.38;5044409;28;20045;-65
2021/09/26 09:06:40;;;;;;;14.30;7.15;;;;;;;26.57;36.59;100483.38;5044438;28;20035;-65
2021/09/26 09:09:16;;;;;;;16.25;7.10;;;;;;;26.37;37.39;100478.47;5044592;28;20045;-65
2021/09/26 09:11:58;;;;;;;14.88;6.35;;;;;;;26.30;38.31;100477.78;5044687;28;20029;-65
2021/09/26 09:14:24;;;;;;;11.20;6.65;;;;;;;26.06;37.86;100468.97;5026304;28;20037;-65
2021/09/26 09:16:54;;;;;;;11.93;6.78;;;;;;;26.17;37.69;100475.38;5044229;28;20092;-65
2021/09/26 09:19:21;;;;;;;13.73;6.82;;;;;;;26.40;36.86;100467.09;5044412;28;20048;-65
2021/09/26 09:22:03;;;;;;;14.68;6.30;;;;;;;26.59;36.85;100466.81;5043992;28;20091;-66
2021/09/26 09:24:28;;;;;;;13.35;6.78;;;;;;;26.35;37.30;100456.16;5043612;28;20064;-65
2021/09/26 09:26:55;;;;;;;11.35;7.07;;;;;;;26.31;37.82;100465.84;5044193;28;20206;-65
2021/09/26 09:29:23;;;;;;;15.82;6.93;;;;;;;26.18;38.45;100466.19;5043877;28;20049;-65
2021/09/26 09:31:57;;;;;;;15.45;6.18;;;;;;;25.92;38.92;100464.06;5044104;28;20029;-65
2021/09/26 09:34:37;;;;;;;15.88;6.10;;;;;;;25.80;38.42;100458.72;5043855;28;20347;-65
2021/09/26 09:37:23;;;;;;;14.20;6.38;;;;;;;25.93;38.34;100455.69;5043757;28;20067;-65
2021/09/26 09:40:11;;;;;;;11.07;6.65;;;;;;;25.29;39.63;100455.03;5043849;28;20040;-65
2021/09/26 09:42:42;;;;;;;12.68;6.05;;;;;;;24.91;40.56;100457.44;5043834;28;20093;-65
2021/09/26 09:45:21;;;;;;;9.88;5.53;;;;;;;24.94;40.76;100449.66;5043809;28;20037;-65
2021/09/26 09:48:14;;;;;;;15.30;5.65;;;;;;;25.07;40.97;100441.34;5026266;28;20063;-65
2021/09/26 09:50:59;;;;;;;11.07;5.85;;;;;;;25.27;40.76;100442.78;5043549;28;20033;-65
2021/09/26 09:53:47;;;;;;;8.00;6.00;;;;;;;25.76;39.39;100442.13;5043157;28;20045;-65
2021/09/26 09:56:23;;;;;;;8.68;5.78;;;;;;;25.72;41.09;100440.97;5044096;28;20040;-65
2021/09/26 09:58:54;;;;;;;9.98;5.15;;;;;;;25.56;39.38;100435.47;5043087;28;20046;-65
2021/09/26 10:01:30;;;;;;;10.77;4.93;;;;;;;25.82;38.29;100439.50;5043651;28;20061;-65
2021/09/26 10:04:02;;;;;;;15.52;5.68;;;;;;;25.62;39.40;100429.91;5025410;28;20025;-65
2021/09/26 10:06:42;;;;;;;11.48;5.40;;;;;;;25.65;40.09;100429.44;5043237;28;20326;-65
2021/09/26 10:09:28;;;;;;;7.72;4.93;;;;;;;25.79;39.01;100419.09;5043210;28;20049;-65
2021/09/26 10:11:57;;;;;;;11.35;4.75;;;;;;;25.88;40.17;100417.63;5043804;28;20025;-65
2021/09/26 10:14:27;;;;;;;9.23;5.15;;;;;;;25.95;38.60;100409.31;5042523;28;20045;-65
2021/09/26 10:16:55;;;;;;;7.55;5.03;;;;;;;25.97;38.73;100418.03;5043622;28;20377;-66
2021/09/26 10:19:22;;;;;;;9.60;4.95;;;;;;;26.13;37.96;100408.28;5043244;28;20033;-66
2021/09/26 10:21:57;;;;;;;6.38;4.20;;;;;;;25.94;36.97;100404.97;5042650;28;20040;-66
2021/09/26 10:24:25;;;;;;;7.75;4.47;;;;;;;25.93;36.36;100400.59;5040778;28;20038;-66
2021/09/26 10:26:52;;;;;;;10.68;4.32;;;;;;;25.73;37.87;100393.78;5042730;28;20068;-66
2021/09/26 10:29:22;;;;;;;6.32;4.43;;;;;;;25.95;36.96;100393.03;5042301;28;20041;-66
2021/09/26 10:31:50;;;;;;;5.63;3.95;;;;;;;26.19;36.58;100399.13;5043015;28;20021;-66
2021/09/26 10:34:20;;;;;;;7.75;4.00;;;;;;;26.02;36.23;100391.00;5042586;28;20048;-66
2021/09/26 10:36:47;;;;;;;5.07;3.72;;;;;;;25.78;37.71;100383.00;5042624;28;20028;-66
2021/09/26 10:39:17;;;;;;;10.18;4.90;;;;;;;26.00;37.62;100391.22;5042971;28;20051;-66
2021/09/26 10:42:09;;;;;;;6.78;4.25;;;;;;;25.78;38.71;100385.72;5025156;28;20028;-66
2021/09/26 10:44:46;;;;;;;5.65;4.55;;;;;;;25.80;39.30;100374.63;5042193;28;20056;-66
2021/09/26 10:47:16;;;;;;;6.32;4.40;;;;;;;25.85;39.55;100371.19;5042738;28;20331;-66
2021/09/26 10:49:53;;;;;;;12.60;4.22;;;;;;;26.06;38.91;100370.44;5035492;28;20034;-66
2021/09/26 10:52:26;;;;;;;7.32;3.65;;;;;;;26.40;36.47;100360.38;5040240;28;20366;-67
2021/09/26 10:54:53;;;;;;;7.22;3.45;;;;;;;26.32;37.18;100367.06;5042137;28;20296;-66
2021/09/26 10:57:24;;;;;;;6.57;4.03;;;;;;;26.47;37.71;100352.88;5042259;28;20033;-66
2021/09/26 10:59:58;;;;;;;6.15;3.95;;;;;;;26.38;37.83;100357.91;5042654;28;20110;-66
2021/09/26 11:02:23;;;;;;;7.35;4.57;;;;;;;26.16;37.87;100356.22;5042437;28;20037;-66
2021/09/26 11:04:54;;;;;;;8.20;3.85;;;;;;;26.14;38.63;100361.06;5041780;28;20049;-66
2021/09/26 11:07:22;;;;;;;8.98;4.10;;;;;;;26.25;37.62;100349.28;5042621;28;20029;-66
2021/09/26 11:09:51;;;;;;;7.82;4.10;;;;;;;26.14;37.80;100347.50;5024713;28;20033;-66
2021/09/26 11:12:42;;;;;;;5.80;3.38;;;;;;;26.20;37.73;100341.06;5042155;28;20139;-67
2021/09/26 11:15:11;;;;;;;6.13;3.42;;;;;;;26.48;36.77;100327.34;5042320;28;20319;-66
2021/09/26 11:17:47;;;;;;;5.60;3.90;;;;;;;26.66;37.28;100329.75;5042176;28;20315;-66
2021/09/26 11:20:32;;;;;;;7.53;3.85;;;;;;;26.38;37.73;100321.78;5042087;28;20033;-66
2021/09/26 11:23:06;;;;;;;6.57;3.97;;;;;;;26.53;37.42;100313.84;5041378;28;20049;-66
2021/09/26 11:25:50;;;;;;;;;;;;;;;26.44;37.73;100318.06;5042161;28;20072;-66